Terminal Aerodrome Forecast
Issued by NWS

Home | Current Version | Previous Version | Text Only | Print | Product List | Glossary On
Versions: 1 2 3 4 5 6 7 8 9 10 11 12 13 14
000
FTUS43 KDDC 272338
TAFGCK
TAF
KGCK 272338Z 2800/2824 13025G33KT P6SM VCTS BKN080CB
     FM280400 12019G27KT P6SM VCSH BKN015
     FM280500 12017KT P6SM SCT010
     FM280700 15009KT P6SM SCT020
     FM282200 31007KT P6SM BKN140
     FM282300 36007KT P6SM BKN110=

USA.gov is the U.S. government's official web portal to all federal, state and local government web resources and services.